createdAt,value
2018-07-13T00:02:14.276Z,60.20
2018-07-13T00:04:47.789Z,60.20
2018-07-13T00:07:22.010Z,60.20
2018-07-13T00:09:56.579Z,60.20
2018-07-13T00:12:30.376Z,60.40
2018-07-13T00:15:12.758Z,60.50
2018-07-13T00:17:46.429Z,61.10
2018-07-13T00:20:20.333Z,61.50
2018-07-13T00:22:54.424Z,61.50
2018-07-13T00:25:28.352Z,61.50
2018-07-13T00:28:03.292Z,61.20
2018-07-13T00:30:37.111Z,61.10
2018-07-13T00:33:10.993Z,60.80
2018-07-13T00:35:45.016Z,60.20
2018-07-13T00:38:21.095Z,60.60
2018-07-13T00:40:54.986Z,60.80
2018-07-13T00:43:28.852Z,61.60
2018-07-13T00:46:02.901Z,60.90
2018-07-13T00:48:36.937Z,60.70
2018-07-13T00:51:11.727Z,60.80
2018-07-13T00:53:45.765Z,61.90
2018-07-13T00:56:20.389Z,60.90
2018-07-13T00:58:53.867Z,60.70
2018-07-13T01:01:27.866Z,61.60
2018-07-13T01:04:01.862Z,60.30
2018-07-13T01:06:35.838Z,60.80
2018-07-13T01:09:11.241Z,60.80
2018-07-13T01:11:45.056Z,60.80
2018-07-13T01:14:20.495Z,60.60
2018-07-13T01:16:53.998Z,60.70
2018-07-13T01:19:28.253Z,60.00
2018-07-13T01:22:02.414Z,60.00
2018-07-13T01:24:36.454Z,59.90
2018-07-13T01:27:10.486Z,59.90
2018-07-13T01:29:44.484Z,60.00
2018-07-13T01:32:19.280Z,59.40
2018-07-13T01:34:53.105Z,59.40
2018-07-13T01:37:27.341Z,59.20
2018-07-13T01:40:01.185Z,59.20
2018-07-13T01:42:35.343Z,59.20
2018-07-13T01:45:09.597Z,58.80
2018-07-13T01:50:15.873Z,58.70
2018-07-13T01:52:52.322Z,58.70
2018-07-13T01:55:26.352Z,58.70
2018-07-13T01:57:59.809Z,59.00
2018-07-13T02:00:34.352Z,59.10
2018-07-13T02:03:08.155Z,59.10
2018-07-13T02:05:41.929Z,59.20
2018-07-13T02:08:15.605Z,59.30
2018-07-13T02:11:18.201Z,59.30
2018-07-13T02:13:52.515Z,59.40
2018-07-13T02:16:31.038Z,59.00
2018-07-13T02:19:04.783Z,58.70
2018-07-13T02:21:38.664Z,58.30
2018-07-13T02:24:14.109Z,58.20
2018-07-13T02:27:03.980Z,58.20
2018-07-13T02:29:38.204Z,57.90
2018-07-13T02:32:13.280Z,57.80
2018-07-13T02:34:47.159Z,57.20
2018-07-13T02:37:25.805Z,57.10
2018-07-13T02:40:03.672Z,56.60
2018-07-13T02:42:50.027Z,56.80
2018-07-13T02:46:13.241Z,56.30
2018-07-13T02:54:19.942Z,55.50
2018-07-13T03:02:29.902Z,55.20
2018-07-13T03:05:03.605Z,54.70
2018-07-13T03:07:50.199Z,55.30
2018-07-13T03:10:43.901Z,54.70
2018-07-13T03:13:32.140Z,54.40
2018-07-13T03:16:06.613Z,54.50
2018-07-13T03:18:48.271Z,54.40
2018-07-13T03:30:20.085Z,54.20
2018-07-13T03:32:54.105Z,54.00
2018-07-13T03:35:40.046Z,54.00
2018-07-13T03:38:14.543Z,53.50
2018-07-13T03:42:36.058Z,53.10
2018-07-13T03:45:10.003Z,53.00
2018-07-13T03:47:44.850Z,53.10
2018-07-13T03:50:18.982Z,53.00
2018-07-13T03:52:52.359Z,52.80
2018-07-13T03:55:27.240Z,52.80
2018-07-13T03:58:00.782Z,52.30
2018-07-13T04:00:34.731Z,52.10
2018-07-13T04:03:08.527Z,51.80
2018-07-13T04:05:42.906Z,51.50
2018-07-13T04:08:16.563Z,52.00
2018-07-13T04:10:49.960Z,51.70
2018-07-13T04:13:23.774Z,51.20
2018-07-13T04:15:58.957Z,51.10
2018-07-13T04:18:32.997Z,51.20
2018-07-13T04:21:06.864Z,51.00
2018-07-13T04:26:13.684Z,51.00
2018-07-13T04:28:47.574Z,51.20
2018-07-13T04:31:21.409Z,51.40
2018-07-13T04:33:55.007Z,51.40
2018-07-13T04:56:09.701Z,51.50
2018-07-13T04:58:43.429Z,51.60
2018-07-13T05:01:17.340Z,52.40
2018-07-13T05:03:51.278Z,52.70
2018-07-13T05:06:24.887Z,52.20
2018-07-13T05:08:59.692Z,51.80
2018-07-13T05:11:34.439Z,51.80
2018-07-13T05:14:08.230Z,51.50
2018-07-13T05:16:43.467Z,51.30
2018-07-13T05:19:17.409Z,51.70
2018-07-13T05:21:51.512Z,51.90
2018-07-13T05:24:25.419Z,52.10
2018-07-13T05:26:58.775Z,52.10
2018-07-13T05:29:33.588Z,52.10
2018-07-13T05:56:08.658Z,51.90
2018-07-13T05:58:42.955Z,51.90
2018-07-13T06:03:48.792Z,51.90
2018-07-13T06:06:22.934Z,51.70
2018-07-13T06:08:57.153Z,51.20
2018-07-13T06:11:31.541Z,51.10
2018-07-13T06:14:05.703Z,51.20
2018-07-13T06:16:40.164Z,51.20
2018-07-13T06:19:16.578Z,50.70
2018-07-13T06:21:51.468Z,50.30
2018-07-13T06:24:26.647Z,49.90
2018-07-13T06:27:00.667Z,49.70
2018-07-13T06:32:13.899Z,49.10
2018-07-13T06:34:47.904Z,48.80
2018-07-13T06:37:22.484Z,48.60
2018-07-13T06:39:56.162Z,49.30
2018-07-13T06:42:31.866Z,48.60
2018-07-13T06:45:06.550Z,48.60
2018-07-13T06:47:40.367Z,48.30
2018-07-13T06:50:14.217Z,48.60
2018-07-13T06:52:49.757Z,48.20
2018-07-13T06:55:25.378Z,48.60
2018-07-13T06:58:07.801Z,48.70
2018-07-13T07:01:03.849Z,49.00
2018-07-13T07:06:17.462Z,50.10
2018-07-13T07:08:53.213Z,49.10
2018-07-13T07:11:27.947Z,48.80
2018-07-13T07:14:02.207Z,48.90
2018-07-13T07:16:36.736Z,49.30
2018-07-13T07:19:10.524Z,49.30
2018-07-13T07:21:46.169Z,49.50
2018-07-13T07:24:20.194Z,49.40
2018-07-13T07:26:55.616Z,49.40
2018-07-13T07:32:03.456Z,49.10
2018-07-13T07:37:09.650Z,49.10
2018-07-13T07:39:44.018Z,49.30
2018-07-13T07:42:18.554Z,49.40
2018-07-13T07:44:52.643Z,49.40
2018-07-13T07:47:26.771Z,49.60
2018-07-13T07:50:01.075Z,49.60
2018-07-13T07:52:36.146Z,49.50
2018-07-13T07:55:10.283Z,49.50
2018-07-13T07:57:45.048Z,49.60
2018-07-13T08:00:19.032Z,49.60
2018-07-13T08:02:53.573Z,49.80
2018-07-13T08:05:27.372Z,49.90
2018-07-13T08:10:34.075Z,50.30
2018-07-13T08:13:08.722Z,50.50
2018-07-13T08:18:14.848Z,51.10
2018-07-13T08:20:51.420Z,51.00
2018-07-13T08:23:26.017Z,51.30
2018-07-13T08:26:01.028Z,51.20
2018-07-13T08:28:35.279Z,51.10
2018-07-13T08:31:11.171Z,51.30
2018-07-13T08:33:46.969Z,51.30
2018-07-13T08:36:22.296Z,51.50
2018-07-13T08:38:57.076Z,51.80
2018-07-13T08:41:31.024Z,51.80
2018-07-13T08:44:05.471Z,51.70
2018-07-13T08:46:40.037Z,51.70
2018-07-13T08:51:46.068Z,51.30
2018-07-13T08:54:22.371Z,51.30
2018-07-13T08:56:57.301Z,51.30
2018-07-13T08:59:31.065Z,51.30
2018-07-13T09:02:06.537Z,51.40
2018-07-13T09:04:40.268Z,51.50
2018-07-13T09:10:19.837Z,51.60
2018-07-13T09:12:55.873Z,51.60
2018-07-13T09:15:29.828Z,51.80
2018-07-13T09:18:03.550Z,51.80
2018-07-13T09:20:38.791Z,52.00
2018-07-13T09:25:45.766Z,52.50
2018-07-13T09:28:21.027Z,52.80
2018-07-13T09:33:27.363Z,53.60
2018-07-13T09:36:00.711Z,53.10
2018-07-13T09:41:06.860Z,53.20
2018-07-13T09:43:41.171Z,53.30
2018-07-13T09:46:14.955Z,53.30
2018-07-13T09:48:49.712Z,53.30
2018-07-13T09:51:23.578Z,53.30
2018-07-13T09:53:57.338Z,53.40
2018-07-13T09:56:32.335Z,53.60
2018-07-13T09:59:06.266Z,53.70
2018-07-13T10:01:40.683Z,54.00
2018-07-13T10:04:14.520Z,53.00
2018-07-13T10:06:48.603Z,52.80
2018-07-13T10:09:22.499Z,52.80
2018-07-13T10:11:56.588Z,52.60
2018-07-13T10:14:31.531Z,52.90
2018-07-13T10:17:05.389Z,52.90
2018-07-13T10:19:39.270Z,53.10
2018-07-13T10:22:14.062Z,52.90
2018-07-13T10:24:47.954Z,52.40
2018-07-13T10:27:22.488Z,51.70
2018-07-13T10:30:00.120Z,51.70
2018-07-13T10:32:34.980Z,51.70
2018-07-13T10:35:10.342Z,51.80
2018-07-13T10:37:45.557Z,52.10
2018-07-13T10:40:19.714Z,52.10
2018-07-13T10:42:53.782Z,52.10
2018-07-13T10:45:28.397Z,52.20
2018-07-13T10:48:01.939Z,52.40
2018-07-13T10:55:41.502Z,53.80
2018-07-13T10:58:15.761Z,54.20
2018-07-13T11:00:49.807Z,54.40
2018-07-13T11:03:23.461Z,54.60
2018-07-13T11:11:03.174Z,55.30
2018-07-13T11:13:36.546Z,55.40
2018-07-13T11:16:10.343Z,55.50
2018-07-13T11:18:44.821Z,55.60
2018-07-13T11:21:18.016Z,55.60
2018-07-13T11:56:08.051Z,55.50
2018-07-13T11:58:43.409Z,55.50
2018-07-13T12:01:18.169Z,57.10
2018-07-13T12:03:51.919Z,57.40
2018-07-13T12:06:27.057Z,57.70
2018-07-13T12:09:01.442Z,57.60
2018-07-13T12:16:42.274Z,57.70
2018-07-13T12:19:16.953Z,57.40
2018-07-13T12:21:51.092Z,57.10
2018-07-13T12:24:25.011Z,56.80
2018-07-13T12:26:58.894Z,56.50
2018-07-13T12:29:34.149Z,56.30
2018-07-13T12:32:08.924Z,56.30
2018-07-13T12:34:44.455Z,56.30
2018-07-13T12:39:51.835Z,56.30
2018-07-13T12:42:30.873Z,56.50
2018-07-13T12:45:04.680Z,56.50
2018-07-13T12:47:38.556Z,56.30
2018-07-13T12:50:14.657Z,56.30
2018-07-13T12:52:48.757Z,56.50
2018-07-13T12:55:22.883Z,56.60
2018-07-13T12:57:56.887Z,56.60
2018-07-13T13:00:32.697Z,56.80
2018-07-13T13:03:07.522Z,56.80
2018-07-13T13:05:41.771Z,57.00
2018-07-13T13:10:48.384Z,57.20
2018-07-13T13:13:22.525Z,57.40
2018-07-13T13:15:56.655Z,57.30
2018-07-13T13:18:30.926Z,57.30
2018-07-13T13:21:04.699Z,57.40
2018-07-13T13:26:11.088Z,57.60
2018-07-13T13:28:45.029Z,56.60
2018-07-13T13:31:19.891Z,56.50
2018-07-13T13:33:53.652Z,56.60
2018-07-13T13:36:27.661Z,56.60
2018-07-13T13:41:34.613Z,56.10
2018-07-13T13:44:09.360Z,56.10
2018-07-13T13:46:43.418Z,56.00
2018-07-13T13:49:20.400Z,56.40
2018-07-13T13:51:54.439Z,55.90
2018-07-13T13:54:29.142Z,56.00
2018-07-13T13:57:02.953Z,56.00
2018-07-13T13:59:37.100Z,56.00
2018-07-13T14:02:11.304Z,56.20
2018-07-13T14:04:44.808Z,56.30
2018-07-13T14:12:38.991Z,56.40
2018-07-13T14:15:13.675Z,56.40
2018-07-13T14:20:20.191Z,56.70
2018-07-13T14:22:54.284Z,56.70
2018-07-13T14:25:27.831Z,56.80
2018-07-13T14:28:01.634Z,57.00
2018-07-13T14:30:35.853Z,57.00
2018-07-13T14:33:09.908Z,57.10
2018-07-13T14:35:44.205Z,57.20
2018-07-13T14:38:18.274Z,57.30
2018-07-13T14:40:52.481Z,57.40
2018-07-13T14:43:26.681Z,57.50
2018-07-13T14:48:34.477Z,57.70
2018-07-13T14:51:09.215Z,57.80
2018-07-13T14:53:43.228Z,57.90
2018-07-13T14:56:17.114Z,57.90
2018-07-13T14:58:51.258Z,57.90
2018-07-13T15:03:57.805Z,57.90
2018-07-13T15:06:31.869Z,57.80
2018-07-13T15:09:05.443Z,57.90
2018-07-13T15:11:39.668Z,58.00
2018-07-13T15:14:13.662Z,57.90
2018-07-13T15:16:47.658Z,57.90
2018-07-13T15:19:21.820Z,57.80
2018-07-13T15:24:28.704Z,57.90
2018-07-13T15:27:02.920Z,58.10
2018-07-13T15:29:36.735Z,58.10
2018-07-13T15:34:43.548Z,58.30
2018-07-13T15:39:49.608Z,58.40
2018-07-13T15:42:23.475Z,58.40
2018-07-13T15:44:57.266Z,58.40
2018-07-13T15:47:32.272Z,58.60
2018-07-13T15:50:07.280Z,58.70
2018-07-13T15:52:41.426Z,58.60
2018-07-13T15:57:48.344Z,58.60
2018-07-13T16:00:22.325Z,58.70
2018-07-13T16:02:56.205Z,58.80
2018-07-13T16:05:30.335Z,58.70
2018-07-13T16:08:04.297Z,58.70
2018-07-13T16:10:38.665Z,58.70
2018-07-13T16:13:12.670Z,58.80
2018-07-13T16:15:47.609Z,58.90
2018-07-13T16:20:54.564Z,59.00
2018-07-13T16:23:28.898Z,59.10
2018-07-13T16:26:02.922Z,59.20
2018-07-13T16:28:36.553Z,59.30
2018-07-13T16:31:11.189Z,59.20
2018-07-13T16:33:44.323Z,59.30
2018-07-13T16:36:18.642Z,59.30
2018-07-13T16:38:52.550Z,59.40
2018-07-13T16:41:26.883Z,59.50
2018-07-13T16:44:01.024Z,59.40
2018-07-13T16:49:08.937Z,59.50
2018-07-13T16:51:42.704Z,59.50
2018-07-13T16:54:17.230Z,59.70
2018-07-13T16:56:50.883Z,59.60
2018-07-13T16:59:24.910Z,59.60
2018-07-13T17:01:58.956Z,59.70
2018-07-13T17:04:32.377Z,59.60
2018-07-13T17:07:06.907Z,59.60
2018-07-13T17:09:40.587Z,59.70
2018-07-13T17:12:14.916Z,59.70
2018-07-13T17:14:48.553Z,59.70
2018-07-13T17:17:22.723Z,59.70
2018-07-13T17:19:56.783Z,59.80
2018-07-13T17:25:03.283Z,60.00
2018-07-13T17:30:09.559Z,60.20
2018-07-13T17:35:16.926Z,60.30
2018-07-13T17:37:51.107Z,60.40
2018-07-13T17:40:24.888Z,60.40
2018-07-13T17:42:58.331Z,60.40
2018-07-13T17:45:33.619Z,60.40
2018-07-13T17:50:40.330Z,60.30
2018-07-13T17:53:14.151Z,60.30
2018-07-13T17:55:49.867Z,60.50
2018-07-13T17:58:24.403Z,60.60
2018-07-13T18:03:30.839Z,60.70
2018-07-13T18:06:05.124Z,61.00
2018-07-13T18:08:39.110Z,60.80
2018-07-13T18:11:13.619Z,60.80
2018-07-13T18:13:48.581Z,61.00
2018-07-13T18:16:22.445Z,60.80
2018-07-13T18:18:57.809Z,60.80
2018-07-13T18:21:31.621Z,60.80
2018-07-13T18:42:54.165Z,60.90
2018-07-13T18:45:27.719Z,62.10
2018-07-13T18:48:02.345Z,62.80
2018-07-13T18:50:36.109Z,63.40
2018-07-13T18:53:12.224Z,63.30
2018-07-13T18:55:46.056Z,63.10
2018-07-13T18:58:20.092Z,63.10
2018-07-13T19:00:53.939Z,62.90
2018-07-13T19:03:27.940Z,62.80
2018-07-13T19:06:01.853Z,62.70
2018-07-13T19:08:35.648Z,62.70
2018-07-13T19:11:09.923Z,62.50
2018-07-13T19:13:44.365Z,62.50
2018-07-13T19:16:18.691Z,62.40
2018-07-13T19:18:52.348Z,62.50
2018-07-13T19:21:25.949Z,62.40
2018-07-13T19:23:59.984Z,62.50
2018-07-13T19:26:33.677Z,62.40
2018-07-13T19:29:07.571Z,62.70
2018-07-13T19:31:41.436Z,62.60
2018-07-13T19:34:15.346Z,62.40
2018-07-13T19:36:48.913Z,62.40
2018-07-13T19:41:54.879Z,62.10
2018-07-13T19:44:28.535Z,61.90
2018-07-13T19:47:02.462Z,61.80
2018-07-13T19:49:36.498Z,61.90
2018-07-13T19:52:10.464Z,62.00
2018-07-13T19:54:45.588Z,62.00
2018-07-13T19:57:19.450Z,62.10
2018-07-13T19:59:54.655Z,63.00
2018-07-13T20:02:28.711Z,62.30
2018-07-13T20:07:35.682Z,62.30
2018-07-13T20:10:10.116Z,61.90
2018-07-13T20:12:43.990Z,62.80
2018-07-13T20:15:18.000Z,61.80
2018-07-13T20:17:51.803Z,62.70
2018-07-13T20:20:27.145Z,61.90
2018-07-13T20:23:00.643Z,62.00
2018-07-13T20:25:34.503Z,62.10
2018-07-13T20:28:08.326Z,62.10
2018-07-13T20:30:42.053Z,62.10
2018-07-13T20:33:16.149Z,62.10
2018-07-13T20:35:49.899Z,62.00
2018-07-13T20:38:23.062Z,62.10
2018-07-13T20:43:29.474Z,62.10
2018-07-13T20:46:03.056Z,62.00
2018-07-13T20:48:37.315Z,62.00
2018-07-13T20:51:10.990Z,62.00
2018-07-13T20:53:44.660Z,61.90
2018-07-13T20:58:52.744Z,61.70
2018-07-13T21:01:26.526Z,61.70
2018-07-13T21:03:59.773Z,61.80
2018-07-13T21:09:05.933Z,61.90
2018-07-13T21:11:39.735Z,61.80
2018-07-13T21:14:13.197Z,61.90
2018-07-13T21:16:47.636Z,61.80
2018-07-13T21:19:22.332Z,61.80
2018-07-13T21:21:55.909Z,61.80
2018-07-13T21:24:29.761Z,61.80
2018-07-13T21:27:03.801Z,61.80
2018-07-13T21:29:38.165Z,61.70
2018-07-13T21:32:11.855Z,61.70
2018-07-13T21:34:47.087Z,61.60
2018-07-13T21:37:51.341Z,61.80
2018-07-13T21:40:25.121Z,61.80
2018-07-13T21:42:58.687Z,61.90
2018-07-13T21:45:32.327Z,62.00
2018-07-13T21:50:46.022Z,62.00
2018-07-13T21:53:20.414Z,62.10
2018-07-13T21:55:55.641Z,62.00
2018-07-13T21:58:31.300Z,62.00
2018-07-13T22:01:05.044Z,62.90
2018-07-13T22:03:38.689Z,62.10
2018-07-13T22:06:12.511Z,62.30
2018-07-13T22:08:46.182Z,62.30
2018-07-13T22:11:20.265Z,62.30
2018-07-13T22:13:54.247Z,62.20
2018-07-13T22:16:28.320Z,62.10
2018-07-13T22:23:59.427Z,62.10
2018-07-13T22:26:33.135Z,62.10
2018-07-13T22:29:07.147Z,61.90
2018-07-13T22:31:40.996Z,61.90
2018-07-13T22:34:16.296Z,62.00
2018-07-13T22:36:51.264Z,62.20
2018-07-13T22:39:25.755Z,62.20
2018-07-13T22:41:59.665Z,62.50
2018-07-13T22:44:33.567Z,62.60
2018-07-13T22:47:07.659Z,62.60
2018-07-13T22:49:41.360Z,62.70
2018-07-13T22:54:47.672Z,62.90
2018-07-13T22:57:21.999Z,62.90
2018-07-13T22:59:56.606Z,62.90
2018-07-13T23:02:30.669Z,63.00
2018-07-13T23:05:04.730Z,62.90
2018-07-13T23:07:38.434Z,63.00
2018-07-13T23:10:12.529Z,63.00
2018-07-13T23:12:46.480Z,62.90
2018-07-13T23:15:20.494Z,62.90
2018-07-13T23:17:54.513Z,62.80
2018-07-13T23:20:28.328Z,63.20
2018-07-13T23:23:01.601Z,63.00
2018-07-13T23:25:35.385Z,62.80
2018-07-13T23:30:41.506Z,63.10
2018-07-13T23:33:14.933Z,62.70
2018-07-13T23:35:48.967Z,62.60
2018-07-13T23:38:22.914Z,62.80
2018-07-13T23:40:57.186Z,62.90
2018-07-13T23:43:31.065Z,62.90
2018-07-13T23:46:05.288Z,63.10
2018-07-13T23:48:39.199Z,63.00
2018-07-13T23:51:13.068Z,63.10
2018-07-13T23:53:47.071Z,63.10
2018-07-13T23:56:21.336Z,63.10
2018-07-13T23:58:55.368Z,63.20
